Time;durP1;ratioP1;P1;durP2;ratioP2;P2;SDS_P1;SDS_P2;PMS_P1;PMS_P2;Temp;Humidity;BMP_temperature;BMP_pressure;BME280_temperature;BME280_humidity;BME280_pressure;Samples;Min_cycle;Max_cycle;Signal;HPM_P1;HPM_P2
2022/01/04 00:02:05;;;;;;;4.68;3.40;;;6.90;99.90;;;;;;5055666;28;20040;-83
2022/01/04 00:04:31;;;;;;;4.80;3.50;;;6.90;99.90;;;;;;5054675;28;20108;-85
2022/01/04 00:06:58;;;;;;;4.82;3.40;;;6.80;99.90;;;;;;5037036;28;20032;-84
2022/01/04 00:09:23;;;;;;;5.60;3.63;;;6.80;99.90;;;;;;5055080;28;20088;-83
2022/01/04 00:14:21;;;;;;;7.30;4.68;;;6.70;99.90;;;;;;5054844;28;20438;-83
2022/01/04 00:16:47;;;;;;;6.38;4.30;;;6.70;99.90;;;;;;5037092;28;20524;-84
2022/01/04 00:19:14;;;;;;;6.03;3.75;;;6.70;99.90;;;;;;5037854;28;20025;-84
2022/01/04 00:21:42;;;;;;;6.22;3.88;;;6.70;99.90;;;;;;5037466;28;20079;-84
2022/01/04 00:24:07;;;;;;;5.47;3.72;;;6.60;99.90;;;;;;5055050;28;20025;-84
2022/01/04 00:26:33;;;;;;;6.43;4.05;;;6.70;99.90;;;;;;5054913;28;20033;-83
2022/01/04 00:28:59;;;;;;;4.90;3.63;;;6.60;99.90;;;;;;5036409;28;20032;-82
2022/01/04 00:31:24;;;;;;;6.10;3.72;;;6.60;99.90;;;;;;5056438;28;20421;-83
2022/01/04 00:33:50;;;;;;;5.38;3.65;;;6.60;99.90;;;;;;5037844;28;20072;-82
2022/01/04 00:36:16;;;;;;;6.13;3.88;;;6.60;99.90;;;;;;5036762;28;20025;-83
2022/01/04 00:38:42;;;;;;;6.40;3.97;;;6.60;99.90;;;;;;5054547;28;20028;-83
2022/01/04 00:41:07;;;;;;;5.72;3.90;;;6.60;99.90;;;;;;5036790;28;20083;-83
2022/01/04 00:43:33;;;;;;;5.03;3.90;;;6.50;99.90;;;;;;5036564;28;20710;-84
2022/01/04 00:46:00;;;;;;;6.35;3.80;;;6.50;99.90;;;;;;5054806;28;20029;-84
2022/01/04 00:50:52;;;;;;;6.07;3.60;;;6.50;99.90;;;;;;5054355;28;20471;-84
2022/01/04 00:53:19;;;;;;;6.00;3.90;;;6.40;99.90;;;;;;5054615;28;20028;-83
2022/01/04 00:55:44;;;;;;;5.68;4.15;;;6.40;99.90;;;;;;5053753;28;20104;-83
2022/01/04 00:58:10;;;;;;;6.13;3.70;;;6.40;99.90;;;;;;5054551;28;20111;-84
2022/01/04 01:00:37;;;;;;;13.90;7.53;;;6.40;99.90;;;;;;5054334;28;20037;-83
2022/01/04 01:03:03;;;;;;;10.60;7.13;;;6.40;99.90;;;;;;5054220;28;20029;-84
2022/01/04 01:05:29;;;;;;;9.55;5.95;;;6.40;99.90;;;;;;5053830;28;20106;-84
2022/01/04 01:07:56;;;;;;;8.15;5.32;;;6.40;99.90;;;;;;5054908;28;20021;-85
2022/01/04 01:12:55;;;;;;;6.90;4.45;;;6.40;99.90;;;;;;5054497;28;20032;-84
2022/01/04 01:15:21;;;;;;;7.75;4.47;;;6.40;99.90;;;;;;5055488;28;20427;-83
2022/01/04 01:17:47;;;;;;;5.43;3.90;;;6.40;99.90;;;;;;5037619;28;20036;-82
2022/01/04 01:20:14;;;;;;;5.28;3.72;;;6.40;99.90;;;;;;5037356;28;20021;-82
2022/01/04 01:22:40;;;;;;;6.50;3.60;;;6.40;99.90;;;;;;5054261;28;20407;-83
2022/01/04 01:25:07;;;;;;;7.28;4.40;;;6.40;99.90;;;;;;5035564;28;20033;-83
2022/01/04 01:27:34;;;;;;;4.65;3.38;;;6.40;99.90;;;;;;5054244;28;20116;-83
2022/01/04 01:30:00;;;;;;;7.53;4.43;;;6.30;99.90;;;;;;5053595;28;20367;-82
2022/01/04 01:32:25;;;;;;;7.43;4.53;;;6.30;99.90;;;;;;5053866;28;20052;-83
2022/01/04 01:34:51;;;;;;;7.10;4.88;;;6.30;99.90;;;;;;5035176;28;20033;-84
2022/01/04 01:37:17;;;;;;;6.93;4.68;;;6.30;99.90;;;;;;5035603;28;20115;-83
2022/01/04 01:39:43;;;;;;;6.93;4.05;;;6.30;99.90;;;;;;5053549;28;20106;-83
2022/01/04 01:42:09;;;;;;;5.57;3.20;;;6.30;99.90;;;;;;5053613;28;20044;-83
2022/01/04 01:44:35;;;;;;;5.93;3.67;;;6.30;99.90;;;;;;5035666;28;20025;-84
2022/01/04 01:47:02;;;;;;;5.47;3.65;;;6.30;99.90;;;;;;5035690;28;20032;-83
2022/01/04 01:49:27;;;;;;;6.00;3.85;;;6.30;99.90;;;;;;5035127;28;20143;-84
2022/01/04 01:51:54;;;;;;;4.70;3.25;;;6.30;99.90;;;;;;5035083;28;20534;-83
2022/01/04 01:54:20;;;;;;;4.68;3.15;;;6.30;99.90;;;;;;5052858;28;20082;-85
2022/01/04 01:56:46;;;;;;;5.63;3.08;;;6.30;99.90;;;;;;5035016;28;20033;-83
2022/01/04 01:59:15;;;;;;;4.13;3.10;;;6.30;99.90;;;;;;5034915;28;20029;-84
2022/01/04 02:01:40;;;;;;;4.97;2.90;;;6.30;99.90;;;;;;5052538;28;20036;-83
2022/01/04 02:04:06;;;;;;;4.53;2.90;;;6.40;99.90;;;;;;5052943;28;20032;-83
2022/01/04 02:06:32;;;;;;;4.75;3.22;;;6.30;99.90;;;;;;5052955;28;20090;-84
2022/01/04 02:09:03;;;;;;;5.03;3.10;;;6.30;99.90;;;;;;5034938;28;20032;-84
2022/01/04 02:11:29;;;;;;;5.35;2.90;;;6.30;99.90;;;;;;5035020;28;20836;-83
2022/01/04 02:13:59;;;;;;;4.50;3.00;;;6.30;99.90;;;;;;5054174;28;20200;-85
2022/01/04 02:16:26;;;;;;;4.75;3.00;;;6.30;99.90;;;;;;5035203;28;20032;-83
2022/01/04 02:19:02;;;;;;;4.90;3.20;;;6.30;99.90;;;;;;5034386;28;20075;-84
2022/01/04 02:21:29;;;;;;;4.22;2.97;;;6.30;99.90;;;;;;5052581;28;20035;-83
2022/01/04 02:23:55;;;;;;;3.90;2.80;;;6.40;99.90;;;;;;5034922;28;20055;-83
2022/01/04 02:26:21;;;;;;;6.13;3.13;;;6.40;99.90;;;;;;5052234;28;20025;-84
2022/01/04 02:28:49;;;;;;;7.00;3.72;;;6.40;99.90;;;;;;5052586;28;20029;-84
2022/01/04 02:31:15;;;;;;;7.97;4.22;;;6.40;99.90;;;;;;5037111;28;20021;-83
2022/01/04 02:33:40;;;;;;;8.07;4.35;;;6.40;99.90;;;;;;5033960;28;20204;-84
2022/01/04 02:36:06;;;;;;;8.15;4.22;;;6.40;99.90;;;;;;5034392;28;20040;-83
2022/01/04 02:38:33;;;;;;;5.28;3.40;;;6.40;99.90;;;;;;5052366;28;20032;-83
2022/01/04 02:40:59;;;;;;;4.38;3.05;;;6.40;99.90;;;;;;5051823;28;20075;-83
2022/01/04 02:43:25;;;;;;;5.75;3.55;;;6.40;99.90;;;;;;5052711;28;20383;-84
2022/01/04 02:45:51;;;;;;;5.80;3.30;;;6.50;99.90;;;;;;5052354;28;20096;-82
2022/01/04 02:48:16;;;;;;;5.22;3.40;;;6.40;99.90;;;;;;5051815;28;20045;-82
2022/01/04 02:50:42;;;;;;;5.05;2.95;;;6.40;99.90;;;;;;5052035;28;20100;-83
2022/01/04 02:53:08;;;;;;;5.10;3.20;;;6.40;99.90;;;;;;5051476;28;20037;-83
2022/01/04 02:55:33;;;;;;;4.50;2.92;;;6.30;99.90;;;;;;5052030;28;20040;-84
2022/01/04 02:57:59;;;;;;;6.25;3.28;;;6.40;99.90;;;;;;5034279;28;20029;-86
2022/01/04 03:00:25;;;;;;;5.80;3.05;;;6.40;99.90;;;;;;5034286;28;20035;-83
2022/01/04 03:02:52;;;;;;;6.15;3.55;;;6.40;99.90;;;;;;5034546;28;20123;-83
2022/01/04 03:05:17;;;;;;;5.07;3.10;;;6.30;99.90;;;;;;5052285;28;20072;-82
2022/01/04 03:07:43;;;;;;;6.15;3.47;;;6.30;99.90;;;;;;5034077;28;20559;-83
2022/01/04 03:10:09;;;;;;;5.10;3.40;;;6.30;99.90;;;;;;5035004;28;20379;-83
2022/01/04 03:12:39;;;;;;;5.70;3.22;;;6.30;99.90;;;;;;5034747;28;20040;-83
2022/01/04 03:15:05;;;;;;;4.45;2.90;;;6.30;99.90;;;;;;5051813;28;20096;-84
2022/01/04 03:17:31;;;;;;;4.30;3.00;;;6.30;99.90;;;;;;5034018;28;20029;-83
2022/01/04 03:19:57;;;;;;;4.63;3.03;;;6.30;99.90;;;;;;5033710;28;20075;-84
2022/01/04 03:22:22;;;;;;;3.75;2.65;;;6.30;99.90;;;;;;5052513;28;20079;-83
2022/01/04 03:24:51;;;;;;;4.20;3.03;;;6.30;99.90;;;;;;5033850;28;20398;-88
2022/01/04 03:27:18;;;;;;;4.35;3.00;;;6.30;99.90;;;;;;5034022;28;20115;-82
2022/01/04 03:29:44;;;;;;;4.22;2.90;;;6.30;99.90;;;;;;5034178;28;20025;-82
2022/01/04 03:32:09;;;;;;;4.20;2.83;;;6.30;99.90;;;;;;5033761;28;20177;-82
2022/01/04 03:34:35;;;;;;;5.00;2.60;;;6.30;99.90;;;;;;5051914;28;20054;-81
2022/01/04 03:37:01;;;;;;;4.07;2.70;;;6.30;99.90;;;;;;5051850;28;20021;-83
2022/01/04 03:39:27;;;;;;;4.15;3.20;;;6.30;99.90;;;;;;5051694;28;20029;-83
2022/01/04 03:41:52;;;;;;;4.20;2.92;;;6.30;99.90;;;;;;5051494;28;20032;-82
2022/01/04 03:44:20;;;;;;;3.92;2.70;;;6.30;99.90;;;;;;5033452;28;20029;-86
2022/01/04 03:46:50;;;;;;;4.25;2.78;;;6.30;99.90;;;;;;5051846;28;20389;-81
2022/01/04 03:49:16;;;;;;;5.30;3.05;;;6.30;99.90;;;;;;5034725;28;20027;-82
2022/01/04 03:51:42;;;;;;;3.40;2.58;;;6.30;99.90;;;;;;5037947;28;20108;-82
2022/01/04 03:54:08;;;;;;;3.53;2.58;;;6.30;99.90;;;;;;5052730;28;20037;-81
2022/01/04 03:56:34;;;;;;;3.75;2.83;;;6.30;99.90;;;;;;5035335;28;20036;-83
2022/01/04 03:59:00;;;;;;;4.97;2.92;;;6.30;99.90;;;;;;5051747;28;20021;-80
2022/01/04 04:01:26;;;;;;;3.72;2.80;;;6.20;99.90;;;;;;5051988;28;20061;-81
2022/01/04 04:03:52;;;;;;;3.35;2.33;;;6.20;99.90;;;;;;5051759;28;20055;-82
2022/01/04 04:06:17;;;;;;;3.33;2.40;;;6.20;99.90;;;;;;5034104;28;20055;-83
2022/01/04 04:08:43;;;;;;;3.83;2.60;;;6.10;99.90;;;;;;5034623;28;20040;-81
2022/01/04 04:11:09;;;;;;;4.90;3.25;;;6.10;99.90;;;;;;5052474;28;20082;-81
2022/01/04 04:13:35;;;;;;;4.68;2.90;;;6.10;99.90;;;;;;5034791;28;20474;-81
2022/01/04 04:16:01;;;;;;;7.15;3.20;;;6.10;99.90;;;;;;5052716;28;20033;-81
2022/01/04 04:18:26;;;;;;;4.25;3.03;;;6.00;99.90;;;;;;5052036;28;20082;-82
2022/01/04 04:20:52;;;;;;;3.95;3.00;;;6.10;99.90;;;;;;5052014;28;20072;-80
2022/01/04 04:23:18;;;;;;;4.63;3.08;;;6.10;99.90;;;;;;5051902;28;20132;-81
2022/01/04 04:25:43;;;;;;;3.75;2.70;;;6.10;99.90;;;;;;5033707;28;20115;-81
2022/01/04 04:28:09;;;;;;;4.90;3.20;;;6.10;99.90;;;;;;5033730;28;20032;-82
2022/01/04 04:30:35;;;;;;;4.22;2.70;;;6.10;99.90;;;;;;5051557;28;20025;-83
2022/01/04 04:33:01;;;;;;;3.65;2.67;;;6.10;99.90;;;;;;5030251;28;20353;-83
2022/01/04 04:35:28;;;;;;;3.50;2.55;;;6.10;99.90;;;;;;5031675;28;20121;-82
2022/01/04 04:37:54;;;;;;;4.80;3.25;;;6.10;99.90;;;;;;5031549;28;20032;-82
2022/01/04 04:40:20;;;;;;;5.00;3.17;;;6.10;99.90;;;;;;5034650;28;20085;-81
2022/01/04 04:42:45;;;;;;;4.72;3.10;;;6.10;99.90;;;;;;5017289;28;20087;-81
2022/01/04 04:45:11;;;;;;;4.53;3.08;;;6.10;99.90;;;;;;5034955;28;20035;-83
2022/01/04 04:47:37;;;;;;;6.05;3.55;;;6.10;99.90;;;;;;5016190;28;20128;-84
2022/01/04 04:50:03;;;;;;;6.43;3.70;;;6.20;99.90;;;;;;5034766;28;20025;-88
2022/01/04 04:52:29;;;;;;;5.80;3.80;;;6.10;99.90;;;;;;5012995;28;20034;-82
2022/01/04 04:54:55;;;;;;;6.35;3.60;;;6.10;99.90;;;;;;5015191;28;20037;-84
2022/01/04 04:57:21;;;;;;;5.53;3.65;;;6.10;99.90;;;;;;5014508;28;20087;-84
2022/01/04 04:59:47;;;;;;;4.38;3.10;;;6.20;99.90;;;;;;5013551;28;20026;-85
2022/01/04 05:02:13;;;;;;;5.43;3.75;;;6.10;99.90;;;;;;5013222;28;20198;-83
2022/01/04 05:04:39;;;;;;;6.07;4.10;;;6.20;99.90;;;;;;5034376;28;20033;-82
2022/01/04 05:07:05;;;;;;;6.82;4.30;;;6.10;99.90;;;;;;5035048;28;20025;-84
2022/01/04 05:09:31;;;;;;;6.82;4.28;;;6.20;99.90;;;;;;5034065;28;20032;-82
2022/01/04 05:11:56;;;;;;;7.05;4.30;;;6.20;99.90;;;;;;5015719;28;20028;-81
2022/01/04 05:14:26;;;;;;;6.50;3.90;;;6.20;99.90;;;;;;5041497;28;20038;-81
2022/01/04 05:16:51;;;;;;;5.47;3.38;;;6.20;99.90;;;;;;5037449;28;20048;-80
2022/01/04 05:19:17;;;;;;;5.40;3.60;;;6.20;99.90;;;;;;5038066;28;20025;-80
2022/01/04 05:21:43;;;;;;;4.93;3.17;;;6.20;99.90;;;;;;5018518;28;20032;-81
2022/01/04 05:24:08;;;;;;;5.13;3.17;;;6.20;99.90;;;;;;5035658;28;20036;-81
2022/01/04 05:26:34;;;;;;;4.78;2.90;;;6.20;99.90;;;;;;5035883;28;20029;-82
2022/01/04 05:29:01;;;;;;;4.35;2.72;;;6.20;99.90;;;;;;5035925;28;20075;-82
2022/01/04 05:31:27;;;;;;;3.90;2.60;;;6.20;99.90;;;;;;5018458;28;20025;-81
2022/01/04 05:33:52;;;;;;;3.38;2.30;;;6.10;99.90;;;;;;5036054;28;20091;-81
2022/01/04 05:36:18;;;;;;;3.83;2.75;;;6.10;99.90;;;;;;5018123;28;20033;-81
2022/01/04 05:38:43;;;;;;;4.55;2.80;;;6.10;99.90;;;;;;5017643;28;20025;-80
2022/01/04 05:41:09;;;;;;;4.35;2.63;;;6.00;99.90;;;;;;5017776;28;20098;-80
2022/01/04 05:43:36;;;;;;;5.07;3.22;;;5.90;99.90;;;;;;5035278;28;20025;-80
2022/01/04 05:46:01;;;;;;;7.13;4.25;;;5.80;99.90;;;;;;5035540;28;20104;-79
2022/01/04 05:48:27;;;;;;;6.57;4.38;;;5.80;99.90;;;;;;5035681;28;20068;-79
2022/01/04 05:50:53;;;;;;;7.13;4.05;;;5.70;99.90;;;;;;5018058;28;20025;-80
2022/01/04 05:53:19;;;;;;;7.78;4.60;;;5.70;99.90;;;;;;5017648;28;20095;-80
2022/01/04 05:55:45;;;;;;;7.40;5.05;;;5.70;99.90;;;;;;5018676;28;20033;-78
2022/01/04 05:58:10;;;;;;;11.60;7.88;;;5.70;99.90;;;;;;5036691;28;20029;-81
2022/01/04 06:00:37;;;;;;;11.02;7.80;;;5.70;99.90;;;;;;5035579;28;20033;-80
2022/01/04 06:03:02;;;;;;;10.80;7.80;;;5.80;99.90;;;;;;5018005;28;20112;-82
2022/01/04 06:05:28;;;;;;;8.88;6.72;;;5.80;99.90;;;;;;5018689;28;20059;-81
2022/01/04 06:07:54;;;;;;;9.73;6.60;;;5.90;99.90;;;;;;5035402;28;20369;-82
2022/01/04 06:10:20;;;;;;;9.82;5.68;;;5.90;99.90;;;;;;5035722;28;20124;-81
2022/01/04 06:15:17;;;;;;;7.70;4.50;;;6.00;99.90;;;;;;5035032;28;20030;-82
2022/01/04 06:17:49;;;;;;;7.57;4.60;;;6.00;99.90;;;;;;5017454;28;20099;-81
2022/01/04 06:20:21;;;;;;;6.28;4.07;;;6.00;99.90;;;;;;5017260;28;20036;-82
2022/01/04 06:22:47;;;;;;;5.97;4.00;;;6.10;99.90;;;;;;5017021;28;20451;-83
2022/01/04 06:25:15;;;;;;;6.47;3.55;;;6.10;99.90;;;;;;5017091;28;20022;-81
2022/01/04 06:27:42;;;;;;;6.32;4.05;;;6.10;99.90;;;;;;5034460;28;20419;-82
2022/01/04 06:30:09;;;;;;;6.07;3.85;;;6.20;99.90;;;;;;5017138;28;20033;-81
2022/01/04 06:32:36;;;;;;;6.30;3.92;;;6.20;99.90;;;;;;5034671;28;20103;-81
2022/01/04 06:35:02;;;;;;;6.63;3.75;;;6.30;99.90;;;;;;5016926;28;20053;-81
2022/01/04 06:37:28;;;;;;;5.90;3.80;;;6.30;99.90;;;;;;5034434;28;20057;-82
2022/01/04 06:39:54;;;;;;;7.45;4.10;;;6.30;99.90;;;;;;5017023;28;20444;-83
2022/01/04 06:42:19;;;;;;;7.05;3.70;;;6.30;99.90;;;;;;5017447;28;20069;-82
2022/01/04 06:44:45;;;;;;;5.70;3.45;;;6.30;99.90;;;;;;5035185;28;20112;-80
2022/01/04 06:47:11;;;;;;;5.20;3.60;;;6.40;99.90;;;;;;5034615;28;20022;-81
2022/01/04 06:49:37;;;;;;;53.58;32.15;;;6.40;99.90;;;;;;5017105;28;20079;-80
2022/01/04 06:52:04;;;;;;;25.88;16.33;;;6.40;99.90;;;;;;5016912;28;20030;-80
2022/01/04 06:54:30;;;;;;;17.85;11.10;;;6.40;99.90;;;;;;5034088;28;20036;-81
2022/01/04 06:56:56;;;;;;;13.48;8.50;;;6.40;99.90;;;;;;5015878;28;20052;-82
2022/01/04 06:59:21;;;;;;;10.63;6.10;;;6.40;99.90;;;;;;5031383;28;20053;-81
2022/01/04 07:01:47;;;;;;;7.85;5.30;;;6.40;99.90;;;;;;5034525;28;20036;-83
2022/01/04 07:04:13;;;;;;;7.10;5.00;;;6.40;99.90;;;;;;5015941;28;20036;-82
2022/01/04 07:06:39;;;;;;;6.95;4.15;;;6.40;99.90;;;;;;5035289;28;20026;-85
2022/01/04 07:09:07;;;;;;;6.75;4.30;;;6.40;99.90;;;;;;5016693;28;20029;-85
2022/01/04 07:11:33;;;;;;;5.88;4.03;;;6.40;99.90;;;;;;5016760;28;20072;-84
2022/01/04 07:13:59;;;;;;;5.97;3.95;;;6.40;99.90;;;;;;5033966;28;20080;-85
2022/01/04 07:16:28;;;;;;;6.55;4.43;;;6.40;99.90;;;;;;5034256;28;20076;-84
2022/01/04 07:18:56;;;;;;;6.95;4.40;;;6.40;99.90;;;;;;5016502;28;20460;-82
2022/01/04 07:21:22;;;;;;;20.88;12.15;;;6.40;99.90;;;;;;5033514;28;20057;-82
2022/01/04 07:23:48;;;;;;;13.52;8.27;;;6.40;99.90;;;;;;5016330;28;20036;-82
2022/01/04 07:26:15;;;;;;;11.43;7.05;;;6.40;99.90;;;;;;5016281;28;20029;-84
2022/01/04 07:28:49;;;;;;;12.50;8.05;;;6.50;99.90;;;;;;5034497;28;20084;-84
2022/01/04 07:31:16;;;;;;;11.35;6.60;;;6.50;99.90;;;;;;5034891;28;20061;-83
2022/01/04 07:33:44;;;;;;;9.32;5.70;;;6.50;99.90;;;;;;5015683;28;20050;-83
2022/01/04 07:36:10;;;;;;;8.05;5.30;;;6.50;99.90;;;;;;5016192;28;20029;-82
2022/01/04 07:38:36;;;;;;;8.20;5.13;;;6.50;99.90;;;;;;5016319;28;20109;-82
2022/01/04 07:41:03;;;;;;;6.72;4.40;;;6.50;99.90;;;;;;5033773;28;20479;-81
2022/01/04 07:43:30;;;;;;;34.80;27.55;;;6.50;99.90;;;;;;5034095;28;20112;-79
2022/01/04 07:45:56;;;;;;;27.42;18.35;;;6.60;99.90;;;;;;5033831;28;20040;-81
2022/01/04 07:48:22;;;;;;;18.60;12.30;;;6.60;99.90;;;;;;5006803;28;20018;-85
2022/01/04 07:50:49;;;;;;;12.98;9.27;;;6.70;99.90;;;;;;5006677;28;20065;-81
2022/01/04 07:53:15;;;;;;;10.43;7.45;;;6.70;99.90;;;;;;5006102;28;20065;-82
2022/01/04 07:55:41;;;;;;;11.27;7.32;;;6.80;99.90;;;;;;4996636;28;20121;-82
2022/01/04 07:58:07;;;;;;;12.32;7.88;;;6.80;99.90;;;;;;4995074;28;20029;-82
2022/01/04 08:00:33;;;;;;;11.02;7.18;;;6.90;99.90;;;;;;4994562;28;20080;-82
2022/01/04 08:02:58;;;;;;;9.93;6.68;;;6.80;99.90;;;;;;4994848;28;20088;-81
2022/01/04 08:05:25;;;;;;;10.13;6.07;;;6.80;99.90;;;;;;4994367;28;20022;-83
2022/01/04 08:07:51;;;;;;;7.97;4.95;;;6.90;99.90;;;;;;4993883;28;20121;-83
2022/01/04 08:10:17;;;;;;;7.55;4.70;;;6.90;99.90;;;;;;4994143;28;20018;-81
2022/01/04 08:12:44;;;;;;;8.13;4.90;;;6.90;99.90;;;;;;5011899;28;20081;-81
2022/01/04 08:15:10;;;;;;;7.70;4.82;;;6.90;99.90;;;;;;5015076;28;20469;-81
2022/01/04 08:17:36;;;;;;;6.97;4.50;;;7.00;99.90;;;;;;5017380;28;20038;-81
2022/01/04 08:20:04;;;;;;;7.53;4.00;;;7.00;99.90;;;;;;5016198;28;20026;-81
2022/01/04 08:22:34;;;;;;;5.22;3.63;;;7.00;99.90;;;;;;5017617;28;20353;-81
2022/01/04 08:25:02;;;;;;;5.03;3.60;;;7.10;99.90;;;;;;5017299;28;20029;-82
2022/01/04 08:27:28;;;;;;;6.95;4.20;;;7.20;99.90;;;;;;5016792;28;20268;-81
2022/01/04 08:29:54;;;;;;;6.30;3.88;;;7.20;99.90;;;;;;5017506;28;20030;-81
2022/01/04 08:32:20;;;;;;;5.60;3.97;;;7.30;99.90;;;;;;4998991;28;20080;-82
2022/01/04 08:34:46;;;;;;;6.07;4.00;;;7.30;99.90;;;;;;4999382;28;20092;-82
2022/01/04 08:37:12;;;;;;;5.65;3.85;;;7.30;99.90;;;;;;5017003;28;20069;-81
2022/01/04 08:39:38;;;;;;;6.40;3.53;;;7.30;99.90;;;;;;5016824;28;20029;-82
2022/01/04 08:42:04;;;;;;;7.30;4.63;;;7.30;99.90;;;;;;5016725;28;20029;-82
2022/01/04 08:44:31;;;;;;;7.72;5.07;;;7.40;99.90;;;;;;5016477;28;20097;-82
2022/01/04 08:46:57;;;;;;;7.38;4.82;;;7.40;99.90;;;;;;5001270;28;20026;-82
2022/01/04 08:49:23;;;;;;;7.65;4.50;;;7.40;99.90;;;;;;5018363;28;20022;-81
2022/01/04 08:51:48;;;;;;;8.00;4.90;;;7.30;99.90;;;;;;5016640;28;20033;-81
2022/01/04 08:54:14;;;;;;;6.40;4.30;;;7.30;99.90;;;;;;5016795;28;20399;-81
2022/01/04 08:56:41;;;;;;;8.80;6.05;;;7.30;99.90;;;;;;5017031;28;20026;-81
2022/01/04 08:59:08;;;;;;;9.65;6.45;;;7.30;99.90;;;;;;4998879;28;20042;-81
2022/01/04 09:01:35;;;;;;;8.90;5.90;;;7.30;99.90;;;;;;5016573;28;20029;-81
2022/01/04 09:04:06;;;;;;;8.68;5.72;;;7.40;99.90;;;;;;5016264;28;20437;-82
2022/01/04 09:06:32;;;;;;;9.05;5.35;;;7.40;99.90;;;;;;5016830;28;20056;-82
2022/01/04 09:08:58;;;;;;;7.95;4.93;;;7.40;99.90;;;;;;5016177;28;20026;-82
2022/01/04 09:11:26;;;;;;;8.15;4.88;;;7.50;99.90;;;;;;5016362;28;20413;-82
2022/01/04 09:14:10;;;;;;;9.65;5.90;;;7.50;99.90;;;;;;5016269;28;20088;-81
2022/01/04 09:19:23;;;;;;;8.60;5.50;;;7.60;99.90;;;;;;5017780;28;20037;-80
2022/01/04 09:21:49;;;;;;;8.65;5.25;;;7.60;99.90;;;;;;4998974;28;20030;-83
2022/01/04 09:24:15;;;;;;;9.15;5.93;;;7.60;99.90;;;;;;4999494;28;20030;-83
2022/01/04 09:26:43;;;;;;;8.15;5.70;;;7.50;99.90;;;;;;5015462;28;20056;-82
2022/01/04 09:29:10;;;;;;;8.82;5.70;;;7.50;99.90;;;;;;4999144;28;20045;-82
2022/01/04 09:31:35;;;;;;;8.43;5.10;;;7.60;99.90;;;;;;4998259;28;20041;-82
2022/01/04 09:34:02;;;;;;;7.13;4.70;;;7.60;99.90;;;;;;5015517;28;20458;-84
2022/01/04 09:36:39;;;;;;;7.60;5.22;;;7.70;99.90;;;;;;5017016;28;20030;-83
2022/01/04 09:39:08;;;;;;;7.32;4.80;;;7.70;99.90;;;;;;5020785;28;20022;-81
2022/01/04 09:41:34;;;;;;;8.15;5.00;;;7.70;99.90;;;;;;5010554;28;20112;-81
2022/01/04 09:44:03;;;;;;;8.45;5.38;;;7.80;99.90;;;;;;5016146;28;20456;-82
2022/01/04 09:46:35;;;;;;;9.48;5.22;;;7.90;99.90;;;;;;5015399;28;20030;-82
2022/01/04 09:49:01;;;;;;;9.77;6.03;;;8.00;99.90;;;;;;4998003;28;20037;-83
2022/01/04 09:51:27;;;;;;;9.07;5.47;;;8.10;99.90;;;;;;5015815;28;20025;-82
2022/01/04 09:53:53;;;;;;;8.30;5.50;;;8.30;99.90;;;;;;4994532;28;20679;-82
2022/01/04 09:56:19;;;;;;;9.18;5.38;;;8.80;99.90;;;;;;4995660;28;20026;-82
2022/01/04 09:58:45;;;;;;;7.00;4.10;;;9.60;99.90;;;;;;4995434;28;20033;-83
2022/01/04 10:01:38;;;;;;;6.22;3.78;;;10.60;99.90;;;;;;4994911;28;20597;-84
2022/01/04 10:04:05;;;;;;;5.53;3.80;;;11.30;93.70;;;;;;5009536;28;20037;-84
2022/01/04 10:06:31;;;;;;;7.25;4.28;;;11.50;98.20;;;;;;5012373;28;20037;-84
2022/01/04 10:09:04;;;;;;;10.55;5.65;;;11.80;96.20;;;;;;5013634;28;20026;-82
2022/01/04 10:11:32;;;;;;;9.38;5.80;;;12.20;93.60;;;;;;4996123;28;20029;-83
2022/01/04 10:14:21;;;;;;;9.52;5.10;;;12.40;93.90;;;;;;5012745;28;20545;-82
2022/01/04 10:16:59;;;;;;;8.13;4.75;;;12.80;92.10;;;;;;4994719;28;20056;-84
2022/01/04 10:19:35;;;;;;;7.70;4.28;;;13.10;88.60;;;;;;4994579;28;20384;-83
2022/01/04 10:22:19;;;;;;;7.28;4.30;;;13.30;87.70;;;;;;5012483;28;20495;-82
2022/01/04 10:25:06;;;;;;;4.80;3.40;;;13.90;79.20;;;;;;5012895;28;20030;-82
2022/01/04 10:27:45;;;;;;;6.10;3.55;;;14.40;83.50;;;;;;5012700;28;20049;-83
2022/01/04 10:30:17;;;;;;;6.13;3.63;;;14.40;76.50;;;;;;4995805;28;20126;-81
2022/01/04 10:32:43;;;;;;;6.03;3.67;;;14.30;74.40;;;;;;4996191;28;20145;-81
2022/01/04 10:35:09;;;;;;;4.47;2.90;;;14.20;75.20;;;;;;4999316;28;20036;-83
2022/01/04 10:37:37;;;;;;;5.40;3.05;;;14.00;73.80;;;;;;5017276;28;20460;-83
2022/01/04 10:40:06;;;;;;;5.60;3.78;;;13.70;73.90;;;;;;5012857;28;20109;-81
2022/01/04 10:42:32;;;;;;;6.82;4.35;;;13.30;72.90;;;;;;4995344;28;20037;-82
2022/01/04 10:44:58;;;;;;;5.68;3.70;;;12.60;70.80;;;;;;5012004;28;20481;-83
2022/01/04 10:47:30;;;;;;;6.05;4.10;;;12.00;73.60;;;;;;4995219;28;20030;-82
2022/01/04 10:49:56;;;;;;;6.78;3.95;;;11.70;75.00;;;;;;4995084;28;20318;-84
2022/01/04 10:52:31;;;;;;;6.82;4.95;;;11.30;75.00;;;;;;4994893;28;20053;-83
2022/01/04 10:55:13;;;;;;;6.72;5.10;;;11.00;75.10;;;;;;5012518;28;20033;-83
2022/01/04 10:57:38;;;;;;;7.40;4.82;;;10.70;76.10;;;;;;4994506;28;20567;-82
2022/01/04 11:00:15;;;;;;;6.32;4.40;;;10.40;77.50;;;;;;5012028;28;20055;-81
2022/01/04 11:02:41;;;;;;;5.22;3.65;;;10.30;78.00;;;;;;4994404;28;20061;-83
2022/01/04 11:05:18;;;;;;;6.43;4.00;;;10.10;79.10;;;;;;4993912;28;20503;-83
2022/01/04 11:08:04;;;;;;;7.32;3.97;;;10.10;79.20;;;;;;4993853;28;20045;-84
2022/01/04 11:10:34;;;;;;;6.90;3.95;;;10.10;78.00;;;;;;4993612;28;20768;-82
2022/01/04 11:13:00;;;;;;;8.57;3.80;;;10.10;79.40;;;;;;4993918;28;20570;-85
2022/01/04 11:15:26;;;;;;;7.30;3.67;;;10.40;83.80;;;;;;5011545;28;20034;-83
2022/01/04 11:17:52;;;;;;;7.40;3.80;;;11.20;84.30;;;;;;4993725;28;20033;-84
2022/01/04 11:20:19;;;;;;;6.70;3.90;;;12.10;81.70;;;;;;5011463;28;20421;-84
2022/01/04 11:22:47;;;;;;;5.45;3.15;;;13.00;75.10;;;;;;4993793;28;20045;-83
2022/01/04 11:25:21;;;;;;;6.97;3.70;;;13.60;73.30;;;;;;4993346;28;20512;-83
2022/01/04 11:27:48;;;;;;;6.40;3.50;;;13.80;70.20;;;;;;4994554;28;20068;-83
2022/01/04 11:30:28;;;;;;;7.05;3.92;;;13.90;70.80;;;;;;5013011;28;20084;-80
2022/01/04 11:32:59;;;;;;;7.63;4.30;;;14.40;71.50;;;;;;5010885;28;20058;-83
2022/01/04 11:35:26;;;;;;;7.00;4.55;;;14.70;66.90;;;;;;4993744;28;20479;-83
2022/01/04 11:37:57;;;;;;;6.82;4.32;;;14.40;65.20;;;;;;4993203;28;20034;-83
2022/01/04 11:40:28;;;;;;;7.25;4.30;;;13.90;66.50;;;;;;5011228;28;20045;-82
2022/01/04 11:42:55;;;;;;;6.35;3.47;;;13.40;66.90;;;;;;4993636;28;20492;-83
2022/01/04 11:45:44;;;;;;;7.05;3.97;;;13.00;68.30;;;;;;4993627;28;20457;-82
2022/01/04 11:48:40;;;;;;;6.60;3.60;;;12.80;67.00;;;;;;5011288;28;20025;-83
2022/01/04 11:51:09;;;;;;;5.95;3.58;;;12.70;68.90;;;;;;4997226;28;20030;-85
2022/01/04 11:53:36;;;;;;;6.75;3.97;;;13.00;71.60;;;;;;5014900;28;20113;-82
2022/01/04 11:56:09;;;;;;;7.07;3.50;;;13.70;70.70;;;;;;4997430;28;20054;-83
2022/01/04 11:58:50;;;;;;;5.88;3.33;;;14.40;68.10;;;;;;5015240;28;20376;-83
2022/01/04 12:01:25;;;;;;;8.07;4.40;;;15.00;66.70;;;;;;4997372;28;20571;-82
2022/01/04 12:03:51;;;;;;;11.00;4.85;;;15.50;66.10;;;;;;5014375;28;20061;-84
2022/01/04 12:06:33;;;;;;;8.98;4.55;;;16.00;65.70;;;;;;5014962;28;20053;-84
2022/01/04 12:09:00;;;;;;;6.68;3.58;;;16.30;63.40;;;;;;4997214;28;20033;-82
2022/01/04 12:11:26;;;;;;;5.88;3.20;;;16.20;62.30;;;;;;5015026;28;20096;-83
2022/01/04 12:13:52;;;;;;;5.05;3.13;;;15.60;62.10;;;;;;4997684;28;20532;-83
2022/01/04 12:16:45;;;;;;;6.38;3.33;;;14.90;62.30;;;;;;4997664;28;20361;-82
2022/01/04 12:19:12;;;;;;;5.90;3.60;;;14.10;62.80;;;;;;5014811;28;20125;-81
2022/01/04 12:21:44;;;;;;;6.95;3.42;;;13.30;64.10;;;;;;4998351;28;20034;-85
2022/01/04 12:24:13;;;;;;;5.85;3.10;;;12.60;65.20;;;;;;5000404;28;20427;-86
2022/01/04 12:26:40;;;;;;;5.75;3.25;;;12.00;66.50;;;;;;5016458;28;20022;-83
2022/01/04 12:29:05;;;;;;;5.95;3.47;;;11.50;67.70;;;;;;4997366;28;20060;-84
2022/01/04 12:31:34;;;;;;;7.78;3.50;;;11.00;69.30;;;;;;4997680;28;20038;-82
2022/01/04 12:34:03;;;;;;;5.50;3.33;;;10.70;69.70;;;;;;5015655;28;20057;-82
2022/01/04 12:36:41;;;;;;;5.55;3.00;;;10.40;70.40;;;;;;4998756;28;20026;-82
2022/01/04 12:39:15;;;;;;;7.00;3.58;;;10.10;71.20;;;;;;4998989;28;20030;-83
2022/01/04 12:41:42;;;;;;;6.90;3.78;;;9.90;72.20;;;;;;5015013;28;20029;-83
2022/01/04 12:44:10;;;;;;;7.10;3.72;;;9.70;72.70;;;;;;5015375;28;20029;-81
2022/01/04 12:46:42;;;;;;;5.47;3.42;;;9.50;73.20;;;;;;5015190;28;20068;-82
2022/01/04 12:49:09;;;;;;;7.25;3.70;;;9.40;73.80;;;;;;4997408;28;20537;-79
2022/01/04 12:51:50;;;;;;;7.90;4.53;;;9.20;74.80;;;;;;4997453;28;20036;-83
2022/01/04 12:54:17;;;;;;;9.05;4.15;;;9.10;75.50;;;;;;4997303;28;20068;-80
2022/01/04 12:56:44;;;;;;;8.00;4.60;;;9.00;76.00;;;;;;4996896;28;20086;-81
2022/01/04 12:59:27;;;;;;;7.32;4.30;;;9.00;76.60;;;;;;4997177;28;20376;-80
2022/01/04 13:01:54;;;;;;;6.88;3.95;;;8.90;76.80;;;;;;4996498;28;20030;-81
2022/01/04 13:04:35;;;;;;;8.30;4.97;;;8.90;77.00;;;;;;4997171;28;20040;-78
2022/01/04 13:07:23;;;;;;;12.10;5.93;;;8.90;78.90;;;;;;4996797;28;20030;-84
2022/01/04 13:09:54;;;;;;;9.25;5.75;;;8.90;79.50;;;;;;4996408;28;20040;-80